Casa Grande, AZ (85193)

1:54 AM MST on October 21, 2014 (GMT -0700)
Vyn's tower | Change Station
CLOSE
Current Station
Personal Weather Station
Location: Arizona City, AZ
Elevation: 1530 ft
Nearby Weather Stations

Elev 1530 ft 32.73 °N, 111.66 °W | Updated 1 second ago

Clear
Clear
62.4 °F
Feels Like 62.4 °F
N
4.0
Wind Variable Wind from SE
Gusts 6.0 mph

Today
High -- | Low -- °F
--% Chance of Precip.
Yesterday
High -- | Low -- °F
Precip. -- in
6:36 AM 5:47 PM
Waning Crescent, 6% visible
Pressure 29.87 in
Visibility 10.0 miles
Clouds Clear
Dew Point 53 °F
Humidity 71%
Rainfall 0.00 in
Snow Depth Not available.
UV 0 out of 12
Pollen 5.50 out of 12
Air Quality Not available.
Flu Activity No Activity
METAR KCGZ 210835Z AUTO 00000KT 10SM CLR 22/09 A2987 RMK AO1

More Conditions Fewer Conditions

Pressure 29.87 in
Visibility 10.0 miles
Clouds Clear
Dew Point 53 °F
Humidity 71%
Rainfall 0.00 in
Snow Depth Not available.
UV 0 out of 12
Pollen 5.50 out of 12
Air Quality Not available.
Flu Activity No Activity
METAR KCGZ 210835Z AUTO 00000KT 10SM CLR 22/09 A2987 RMK AO1

More Conditions Fewer Conditions

10-Day Weather Forecast

Almanac

Astronomy

Oct. 21, 2014 Rise Set
Actual Time 6:36 AM MST 5:47 PM MST
Civil Twilight 6:11 AM MST 6:12 PM MST
Nautical Twilight 5:42 AM MST 6:41 PM MST
Astronomical Twilight 5:13 AM MST 7:09 PM MST
Moon 4:30 AM MST 4:38 PM MST
Length of Visible Light 12h 01m
Length of Day
11h 11m
Tomorrow will be 1m 52s shorter.
Waning Crescent, 6% of the Moon is Illuminated
Today
Waning Crescent
Oct 23
New
Oct 30
First Quarter
Nov 6
Full
Nov 14
Last Quarter

Today's Extremes

State Highs State Lows

Community

WunderPhotos

Upload Photos

1,763,619 photos uploaded!

Nearby

Snow Depth

Station Depth Elevation
Workman Creek 0 in 6900 ft
Baker Butte 1 in 7300 ft
Promontory 0 in 7930 ft
Happy Jack 0 in 7630 ft
Mormon Mountain 0 in 7500 ft

Earthquake Activity

City Distance Mag. Time & Date
No recent earthquake activity has been reported nearby.
Minimum magnitude displayed is 2.5.

Coastal Water Temperatures

Place Temperature
No Stations Reporting

Nearby Weather Stations